createdAt,value
2023-05-09T00:00:02.807Z,1013.8
2023-05-09T00:15:02.394Z,1013.7
2023-05-09T00:30:02.630Z,1013.5
2023-05-09T00:45:03.042Z,1013.3
2023-05-09T01:00:02.495Z,1013.2
2023-05-09T01:15:02.967Z,1013.0
2023-05-09T01:30:02.397Z,1012.8
2023-05-09T01:45:02.825Z,1012.6
2023-05-09T02:00:03.413Z,1012.6
2023-05-09T02:15:02.723Z,1012.6
2023-05-09T02:30:03.166Z,1012.4
2023-05-09T02:45:02.564Z,1012.3
2023-05-09T03:00:03.021Z,1012.2
2023-05-09T03:15:02.454Z,1012.1
2023-05-09T03:30:02.895Z,1012.0
2023-05-09T03:45:02.423Z,1012.0
2023-05-09T04:00:02.797Z,1011.9
2023-05-09T04:15:03.431Z,1011.9
2023-05-09T04:45:03.080Z,1012.0
2023-05-09T05:00:02.479Z,1011.6
2023-05-09T05:15:02.926Z,1011.6
2023-05-09T05:30:02.448Z,1011.3
2023-05-09T05:45:02.807Z,1011.4
2023-05-09T06:00:02.459Z,1011.2
2023-05-09T06:15:02.672Z,1011.2
2023-05-09T06:30:14.242Z,1011.0
2023-05-09T06:45:02.575Z,1010.7
2023-05-09T07:00:02.992Z,1010.5
2023-05-09T07:15:02.462Z,1010.3
2023-05-09T07:30:02.860Z,1010.2
2023-05-09T07:45:02.467Z,1010.1
2023-05-09T08:00:02.728Z,1010.0
2023-05-09T08:15:03.240Z,1009.7
2023-05-09T08:30:02.657Z,1009.6
2023-05-09T08:45:03.099Z,1009.5
2023-05-09T09:00:02.540Z,1009.2
2023-05-09T09:15:02.956Z,1009.2
2023-05-09T09:30:02.504Z,1009.1
2023-05-09T09:45:02.845Z,1008.8
2023-05-09T10:00:02.529Z,1008.6
2023-05-09T10:15:02.723Z,1008.4
2023-05-09T10:30:03.202Z,1008.2
2023-05-09T10:45:02.608Z,1007.8
2023-05-09T11:00:03.063Z,1007.8
2023-05-09T11:15:02.518Z,1007.6
2023-05-09T11:30:02.952Z,1007.3
2023-05-09T11:45:02.520Z,1007.1
2023-05-09T12:00:02.810Z,1007.1
2023-05-09T12:15:03.266Z,1007.1
2023-05-09T12:30:02.674Z,1006.9
2023-05-09T12:45:03.140Z,1006.7
2023-05-09T13:00:02.594Z,1006.5
2023-05-09T13:15:03.035Z,1006.4
2023-05-09T13:30:02.567Z,1006.2
2023-05-09T13:45:02.895Z,1005.9
2023-05-09T14:00:02.548Z,1005.6
2023-05-09T14:15:02.793Z,1005.5
2023-05-09T14:30:02.222Z,1005.2
2023-05-09T14:45:02.702Z,1005.3
2023-05-09T15:00:16.661Z,1005.0
2023-05-09T15:15:02.629Z,1004.8
2023-05-09T15:30:03.030Z,1004.6
2023-05-09T15:45:02.556Z,1004.7
2023-05-09T16:00:02.906Z,1004.4
2023-05-09T16:15:02.485Z,1004.1
2023-05-09T16:30:02.784Z,1004.1
2023-05-09T16:45:03.217Z,1004.2
2023-05-09T17:00:02.639Z,1004.4
2023-05-09T17:15:03.067Z,1004.7
2023-05-09T17:30:02.585Z,1004.4
2023-05-09T17:45:02.938Z,1004.0
2023-05-09T18:00:02.585Z,1004.0
2023-05-09T18:15:02.840Z,1003.8
2023-05-09T18:30:02.354Z,1003.9
2023-05-09T18:45:02.721Z,1004.1
2023-05-09T19:00:03.172Z,1004.1
2023-05-09T19:15:02.600Z,1004.1
2023-05-09T19:30:03.045Z,1004.2
2023-05-09T19:45:02.599Z,1004.2
2023-05-09T20:00:02.934Z,1004.1
2023-05-09T20:15:02.603Z,1003.7
2023-05-09T20:30:02.792Z,1003.5
2023-05-09T20:45:03.238Z,1003.5
2023-05-09T21:00:02.671Z,1003.5
2023-05-09T21:15:03.142Z,1003.2
2023-05-09T21:30:02.621Z,1003.2
2023-05-09T21:45:02.995Z,1003.1
2023-05-09T22:00:02.654Z,1002.9
2023-05-09T22:15:02.864Z,1002.8
2023-05-09T22:30:02.308Z,1002.8
2023-05-09T22:45:02.749Z,1003.0
2023-05-09T23:00:03.187Z,1002.9
2023-05-09T23:15:02.641Z,1002.7
2023-05-09T23:30:03.063Z,1002.6
2023-05-09T23:45:02.638Z,1002.4
